sensor_id;sensor_type;location;lat;lon;timestamp;P1;durP1;ratioP1;P2;durP2;ratioP2
24206;SDS011;12351;52.284;9.160;2023-06-14T00:00:20;2.63;;;2.30;;
24206;SDS011;12351;52.284;9.160;2023-06-14T00:03:08;3.63;;;2.30;;
24206;SDS011;12351;52.284;9.160;2023-06-14T00:05:56;2.27;;;2.07;;
24206;SDS011;12351;52.284;9.160;2023-06-14T00:08:44;4.27;;;2.13;;
24206;SDS011;12351;52.284;9.160;2023-06-14T00:11:33;4.73;;;2.30;;
24206;SDS011;12351;52.284;9.160;2023-06-14T00:14:21;3.17;;;2.17;;
24206;SDS011;12351;52.284;9.160;2023-06-14T00:17:09;3.23;;;2.30;;
24206;SDS011;12351;52.284;9.160;2023-06-14T00:19:57;3.27;;;2.23;;
24206;SDS011;12351;52.284;9.160;2023-06-14T00:22:45;2.60;;;2.07;;
24206;SDS011;12351;52.284;9.160;2023-06-14T00:25:34;4.63;;;2.20;;
24206;SDS011;12351;52.284;9.160;2023-06-14T00:28:21;3.70;;;2.20;;
24206;SDS011;12351;52.284;9.160;2023-06-14T00:31:09;2.67;;;1.93;;
24206;SDS011;12351;52.284;9.160;2023-06-14T00:33:56;3.33;;;2.30;;
24206;SDS011;12351;52.284;9.160;2023-06-14T00:36:45;3.90;;;2.40;;
24206;SDS011;12351;52.284;9.160;2023-06-14T00:42:25;2.93;;;2.03;;
24206;SDS011;12351;52.284;9.160;2023-06-14T00:45:13;4.03;;;2.40;;
24206;SDS011;12351;52.284;9.160;2023-06-14T00:48:02;2.90;;;2.00;;
24206;SDS011;12351;52.284;9.160;2023-06-14T00:50:53;3.07;;;2.10;;
24206;SDS011;12351;52.284;9.160;2023-06-14T00:53:41;4.77;;;2.40;;
24206;SDS011;12351;52.284;9.160;2023-06-14T00:56:31;4.10;;;2.40;;
24206;SDS011;12351;52.284;9.160;2023-06-14T00:59:18;4.28;;;2.10;;
24206;SDS011;12351;52.284;9.160;2023-06-14T01:02:06;6.10;;;2.15;;
24206;SDS011;12351;52.284;9.160;2023-06-14T01:04:57;2.50;;;2.10;;
24206;SDS011;12351;52.284;9.160;2023-06-14T01:13:29;3.57;;;1.90;;
24206;SDS011;12351;52.284;9.160;2023-06-14T01:16:17;5.33;;;2.07;;
24206;SDS011;12351;52.284;9.160;2023-06-14T01:19:07;2.02;;;1.80;;
24206;SDS011;12351;52.284;9.160;2023-06-14T01:21:59;2.55;;;1.87;;
24206;SDS011;12351;52.284;9.160;2023-06-14T01:24:48;2.87;;;1.85;;
24206;SDS011;12351;52.284;9.160;2023-06-14T01:27:36;2.93;;;1.80;;
24206;SDS011;12351;52.284;9.160;2023-06-14T01:30:23;6.20;;;2.00;;
24206;SDS011;12351;52.284;9.160;2023-06-14T01:36:53;2.37;;;1.80;;
24206;SDS011;12351;52.284;9.160;2023-06-14T01:39:41;3.62;;;1.80;;
24206;SDS011;12351;52.284;9.160;2023-06-14T01:42:29;2.53;;;1.67;;
24206;SDS011;12351;52.284;9.160;2023-06-14T01:45:19;3.30;;;1.80;;
24206;SDS011;12351;52.284;9.160;2023-06-14T01:48:08;2.67;;;2.00;;
24206;SDS011;12351;52.284;9.160;2023-06-14T01:50:57;1.73;;;1.63;;
24206;SDS011;12351;52.284;9.160;2023-06-14T01:53:44;3.40;;;1.87;;
24206;SDS011;12351;52.284;9.160;2023-06-14T02:00:14;2.95;;;2.08;;
24206;SDS011;12351;52.284;9.160;2023-06-14T02:03:04;5.72;;;1.80;;
24206;SDS011;12351;52.284;9.160;2023-06-14T02:05:51;5.00;;;1.93;;
24206;SDS011;12351;52.284;9.160;2023-06-14T02:12:20;4.05;;;2.00;;
24206;SDS011;12351;52.284;9.160;2023-06-14T02:18:47;4.00;;;1.92;;
24206;SDS011;12351;52.284;9.160;2023-06-14T02:25:17;2.60;;;1.90;;
24206;SDS011;12351;52.284;9.160;2023-06-14T02:31:46;4.53;;;2.20;;
24206;SDS011;12351;52.284;9.160;2023-06-14T02:34:35;2.35;;;2.05;;
24206;SDS011;12351;52.284;9.160;2023-06-14T02:37:24;3.60;;;2.17;;
24206;SDS011;12351;52.284;9.160;2023-06-14T02:43:53;7.37;;;2.35;;
24206;SDS011;12351;52.284;9.160;2023-06-14T02:46:42;3.70;;;2.20;;
24206;SDS011;12351;52.284;9.160;2023-06-14T02:49:30;3.07;;;2.40;;
24206;SDS011;12351;52.284;9.160;2023-06-14T02:52:18;5.15;;;2.60;;
24206;SDS011;12351;52.284;9.160;2023-06-14T02:55:06;3.50;;;2.62;;
24206;SDS011;12351;52.284;9.160;2023-06-14T03:01:36;4.15;;;2.50;;
24206;SDS011;12351;52.284;9.160;2023-06-14T03:08:06;3.92;;;2.40;;
24206;SDS011;12351;52.284;9.160;2023-06-14T03:10:54;4.10;;;2.67;;
24206;SDS011;12351;52.284;9.160;2023-06-14T03:13:41;4.12;;;2.10;;
24206;SDS011;12351;52.284;9.160;2023-06-14T03:16:31;4.20;;;2.40;;
24206;SDS011;12351;52.284;9.160;2023-06-14T03:19:18;3.80;;;2.35;;
24206;SDS011;12351;52.284;9.160;2023-06-14T03:22:05;7.85;;;2.35;;
24206;SDS011;12351;52.284;9.160;2023-06-14T03:24:53;2.98;;;2.27;;
24206;SDS011;12351;52.284;9.160;2023-06-14T03:31:20;3.60;;;2.45;;
24206;SDS011;12351;52.284;9.160;2023-06-14T03:37:50;3.90;;;2.50;;
24206;SDS011;12351;52.284;9.160;2023-06-14T03:44:21;2.50;;;2.30;;
24206;SDS011;12351;52.284;9.160;2023-06-14T03:50:50;2.55;;;2.30;;
24206;SDS011;12351;52.284;9.160;2023-06-14T03:57:20;3.62;;;2.22;;
24206;SDS011;12351;52.284;9.160;2023-06-14T04:00:09;2.95;;;2.65;;
24206;SDS011;12351;52.284;9.160;2023-06-14T04:02:58;2.98;;;2.35;;
24206;SDS011;12351;52.284;9.160;2023-06-14T04:09:27;3.20;;;2.50;;
24206;SDS011;12351;52.284;9.160;2023-06-14T04:15:10;5.30;;;2.60;;
24206;SDS011;12351;52.284;9.160;2023-06-14T04:21:05;2.60;;;2.20;;
24206;SDS011;12351;52.284;9.160;2023-06-14T04:23:53;6.15;;;2.62;;
24206;SDS011;12351;52.284;9.160;2023-06-14T04:30:22;3.52;;;2.60;;
24206;SDS011;12351;52.284;9.160;2023-06-14T04:36:52;7.58;;;2.60;;
24206;SDS011;12351;52.284;9.160;2023-06-14T04:43:21;3.80;;;2.40;;
24206;SDS011;12351;52.284;9.160;2023-06-14T04:49:51;4.47;;;2.37;;
24206;SDS011;12351;52.284;9.160;2023-06-14T04:56:20;4.22;;;2.37;;
24206;SDS011;12351;52.284;9.160;2023-06-14T04:59:08;5.20;;;2.45;;
24206;SDS011;12351;52.284;9.160;2023-06-14T05:01:57;5.30;;;2.40;;
24206;SDS011;12351;52.284;9.160;2023-06-14T05:04:45;4.45;;;2.40;;
24206;SDS011;12351;52.284;9.160;2023-06-14T05:07:32;4.28;;;2.05;;
24206;SDS011;12351;52.284;9.160;2023-06-14T05:13:51;4.03;;;2.50;;
24206;SDS011;12351;52.284;9.160;2023-06-14T05:16:39;3.75;;;2.15;;
24206;SDS011;12351;52.284;9.160;2023-06-14T05:19:28;3.22;;;1.98;;
24206;SDS011;12351;52.284;9.160;2023-06-14T05:25:55;2.35;;;1.77;;
24206;SDS011;12351;52.284;9.160;2023-06-14T05:32:24;2.75;;;1.90;;
24206;SDS011;12351;52.284;9.160;2023-06-14T05:35:11;3.17;;;2.05;;
24206;SDS011;12351;52.284;9.160;2023-06-14T05:37:59;5.12;;;1.77;;
24206;SDS011;12351;52.284;9.160;2023-06-14T05:40:47;3.52;;;2.00;;
24206;SDS011;12351;52.284;9.160;2023-06-14T05:43:35;2.83;;;2.20;;
24206;SDS011;12351;52.284;9.160;2023-06-14T05:46:23;2.83;;;1.90;;
24206;SDS011;12351;52.284;9.160;2023-06-14T05:49:10;2.37;;;1.95;;
24206;SDS011;12351;52.284;9.160;2023-06-14T05:51:57;2.35;;;2.00;;
24206;SDS011;12351;52.284;9.160;2023-06-14T05:54:45;2.55;;;1.82;;
24206;SDS011;12351;52.284;9.160;2023-06-14T05:57:34;1.87;;;1.70;;
24206;SDS011;12351;52.284;9.160;2023-06-14T06:00:21;2.15;;;1.65;;
24206;SDS011;12351;52.284;9.160;2023-06-14T06:03:09;2.80;;;1.87;;
24206;SDS011;12351;52.284;9.160;2023-06-14T06:05:57;2.35;;;1.60;;
24206;SDS011;12351;52.284;9.160;2023-06-14T06:08:47;5.80;;;1.90;;
24206;SDS011;12351;52.284;9.160;2023-06-14T06:11:34;2.37;;;1.72;;
24206;SDS011;12351;52.284;9.160;2023-06-14T06:18:02;2.62;;;1.70;;
24206;SDS011;12351;52.284;9.160;2023-06-14T06:24:20;6.30;;;1.80;;
24206;SDS011;12351;52.284;9.160;2023-06-14T06:30:48;2.10;;;1.65;;
24206;SDS011;12351;52.284;9.160;2023-06-14T06:33:36;3.05;;;1.55;;
24206;SDS011;12351;52.284;9.160;2023-06-14T06:36:25;2.10;;;1.70;;
24206;SDS011;12351;52.284;9.160;2023-06-14T06:42:53;3.30;;;1.50;;
24206;SDS011;12351;52.284;9.160;2023-06-14T06:45:41;1.82;;;1.57;;
24206;SDS011;12351;52.284;9.160;2023-06-14T06:48:29;3.27;;;1.75;;
24206;SDS011;12351;52.284;9.160;2023-06-14T06:51:18;1.80;;;1.30;;
24206;SDS011;12351;52.284;9.160;2023-06-14T06:54:06;1.92;;;1.35;;
24206;SDS011;12351;52.284;9.160;2023-06-14T07:00:34;3.25;;;1.77;;
24206;SDS011;12351;52.284;9.160;2023-06-14T07:03:22;2.12;;;1.32;;
24206;SDS011;12351;52.284;9.160;2023-06-14T07:06:09;1.50;;;1.40;;
24206;SDS011;12351;52.284;9.160;2023-06-14T07:12:39;2.30;;;1.57;;
24206;SDS011;12351;52.284;9.160;2023-06-14T07:15:39;2.98;;;1.40;;
24206;SDS011;12351;52.284;9.160;2023-06-14T07:18:27;2.00;;;1.55;;
24206;SDS011;12351;52.284;9.160;2023-06-14T07:21:15;2.27;;;1.40;;
24206;SDS011;12351;52.284;9.160;2023-06-14T07:27:42;2.17;;;1.40;;
24206;SDS011;12351;52.284;9.160;2023-06-14T07:30:30;3.90;;;1.40;;
24206;SDS011;12351;52.284;9.160;2023-06-14T07:33:19;3.95;;;1.32;;
24206;SDS011;12351;52.284;9.160;2023-06-14T07:36:07;2.02;;;1.62;;
24206;SDS011;12351;52.284;9.160;2023-06-14T07:38:55;2.92;;;1.30;;
24206;SDS011;12351;52.284;9.160;2023-06-14T07:41:42;2.55;;;1.50;;
24206;SDS011;12351;52.284;9.160;2023-06-14T07:44:31;2.10;;;1.50;;
24206;SDS011;12351;52.284;9.160;2023-06-14T07:47:20;2.55;;;1.47;;
24206;SDS011;12351;52.284;9.160;2023-06-14T07:50:08;3.55;;;1.50;;
24206;SDS011;12351;52.284;9.160;2023-06-14T07:56:36;1.98;;;1.35;;
24206;SDS011;12351;52.284;9.160;2023-06-14T07:59:24;2.00;;;1.60;;
24206;SDS011;12351;52.284;9.160;2023-06-14T08:02:12;1.92;;;1.57;;
24206;SDS011;12351;52.284;9.160;2023-06-14T08:08:43;3.03;;;1.43;;
24206;SDS011;12351;52.284;9.160;2023-06-14T08:15:12;1.43;;;1.33;;
24206;SDS011;12351;52.284;9.160;2023-06-14T08:17:59;2.57;;;1.30;;
24206;SDS011;12351;52.284;9.160;2023-06-14T08:24:27;1.57;;;1.30;;
24206;SDS011;12351;52.284;9.160;2023-06-14T08:27:15;1.82;;;1.35;;
24206;SDS011;12351;52.284;9.160;2023-06-14T08:30:02;2.13;;;1.67;;
24206;SDS011;12351;52.284;9.160;2023-06-14T08:36:31;2.00;;;1.60;;
24206;SDS011;12351;52.284;9.160;2023-06-14T08:39:18;2.40;;;1.50;;
24206;SDS011;12351;52.284;9.160;2023-06-14T08:42:07;3.20;;;1.80;;
24206;SDS011;12351;52.284;9.160;2023-06-14T08:48:38;3.53;;;1.70;;
24206;SDS011;12351;52.284;9.160;2023-06-14T08:55:07;2.67;;;1.53;;
24206;SDS011;12351;52.284;9.160;2023-06-14T08:57:57;2.77;;;1.60;;
24206;SDS011;12351;52.284;9.160;2023-06-14T09:00:44;1.53;;;1.40;;
24206;SDS011;12351;52.284;9.160;2023-06-14T09:03:33;2.90;;;1.60;;
24206;SDS011;12351;52.284;9.160;2023-06-14T09:06:21;2.83;;;1.43;;
24206;SDS011;12351;52.284;9.160;2023-06-14T09:12:50;2.03;;;1.40;;
24206;SDS011;12351;52.284;9.160;2023-06-14T09:15:38;1.73;;;1.60;;
24206;SDS011;12351;52.284;9.160;2023-06-14T09:18:39;1.83;;;1.50;;
24206;SDS011;12351;52.284;9.160;2023-06-14T09:25:08;4.57;;;1.90;;
24206;SDS011;12351;52.284;9.160;2023-06-14T09:31:37;1.40;;;1.30;;
24206;SDS011;12351;52.284;9.160;2023-06-14T09:34:26;2.73;;;1.40;;
24206;SDS011;12351;52.284;9.160;2023-06-14T09:37:12;2.33;;;1.13;;
24206;SDS011;12351;52.284;9.160;2023-06-14T09:40:02;2.90;;;1.40;;
24206;SDS011;12351;52.284;9.160;2023-06-14T09:42:51;3.33;;;1.73;;
24206;SDS011;12351;52.284;9.160;2023-06-14T09:45:38;3.13;;;1.50;;
24206;SDS011;12351;52.284;9.160;2023-06-14T09:48:26;1.80;;;1.40;;
24206;SDS011;12351;52.284;9.160;2023-06-14T09:51:13;3.53;;;1.60;;
24206;SDS011;12351;52.284;9.160;2023-06-14T09:54:03;2.13;;;1.40;;
24206;SDS011;12351;52.284;9.160;2023-06-14T09:56:52;2.30;;;1.30;;
24206;SDS011;12351;52.284;9.160;2023-06-14T09:59:43;1.60;;;1.43;;
24206;SDS011;12351;52.284;9.160;2023-06-14T10:02:34;2.67;;;1.50;;
24206;SDS011;12351;52.284;9.160;2023-06-14T10:05:23;1.63;;;1.53;;
24206;SDS011;12351;52.284;9.160;2023-06-14T10:11:54;3.20;;;1.30;;
24206;SDS011;12351;52.284;9.160;2023-06-14T10:14:42;1.50;;;1.40;;
24206;SDS011;12351;52.284;9.160;2023-06-14T10:23:15;3.40;;;1.50;;
24206;SDS011;12351;52.284;9.160;2023-06-14T10:30:01;1.70;;;1.40;;
24206;SDS011;12351;52.284;9.160;2023-06-14T10:32:33;2.20;;;1.60;;
24206;SDS011;12351;52.284;9.160;2023-06-14T10:35:20;3.03;;;1.53;;
24206;SDS011;12351;52.284;9.160;2023-06-14T10:47:30;4.70;;;1.80;;
24206;SDS011;12351;52.284;9.160;2023-06-14T10:50:27;1.70;;;1.40;;
24206;SDS011;12351;52.284;9.160;2023-06-14T10:56:05;1.80;;;1.60;;
24206;SDS011;12351;52.284;9.160;2023-06-14T10:58:50;1.70;;;1.60;;
24206;SDS011;12351;52.284;9.160;2023-06-14T11:10:50;3.77;;;1.40;;
24206;SDS011;12351;52.284;9.160;2023-06-14T11:13:39;2.13;;;1.53;;
24206;SDS011;12351;52.284;9.160;2023-06-14T11:16:30;5.63;;;1.60;;
24206;SDS011;12351;52.284;9.160;2023-06-14T11:19:18;2.93;;;1.57;;
24206;SDS011;12351;52.284;9.160;2023-06-14T11:22:05;2.27;;;1.40;;
24206;SDS011;12351;52.284;9.160;2023-06-14T11:24:54;1.50;;;1.40;;
24206;SDS011;12351;52.284;9.160;2023-06-14T11:27:43;2.30;;;1.50;;
24206;SDS011;12351;52.284;9.160;2023-06-14T11:30:30;4.47;;;1.67;;
24206;SDS011;12351;52.284;9.160;2023-06-14T11:33:18;1.70;;;1.53;;
24206;SDS011;12351;52.284;9.160;2023-06-14T11:36:07;1.60;;;1.50;;
24206;SDS011;12351;52.284;9.160;2023-06-14T11:44:33;2.33;;;1.83;;
24206;SDS011;12351;52.284;9.160;2023-06-14T11:47:20;4.77;;;1.90;;
24206;SDS011;12351;52.284;9.160;2023-06-14T11:50:09;2.83;;;1.80;;
24206;SDS011;12351;52.284;9.160;2023-06-14T11:52:58;2.30;;;1.90;;
24206;SDS011;12351;52.284;9.160;2023-06-14T11:55:48;3.60;;;2.10;;
24206;SDS011;12351;52.284;9.160;2023-06-14T11:58:36;2.27;;;1.90;;
24206;SDS011;12351;52.284;9.160;2023-06-14T12:01:24;3.73;;;1.93;;
24206;SDS011;12351;52.284;9.160;2023-06-14T12:04:11;4.40;;;2.03;;
24206;SDS011;12351;52.284;9.160;2023-06-14T12:15:28;3.75;;;1.80;;
24206;SDS011;12351;52.284;9.160;2023-06-14T12:18:15;3.20;;;1.73;;
24206;SDS011;12351;52.284;9.160;2023-06-14T12:21:04;2.37;;;2.00;;
24206;SDS011;12351;52.284;9.160;2023-06-14T12:23:52;3.37;;;2.00;;
24206;SDS011;12351;52.284;9.160;2023-06-14T12:26:41;2.30;;;2.10;;
24206;SDS011;12351;52.284;9.160;2023-06-14T12:29:30;3.43;;;2.10;;
24206;SDS011;12351;52.284;9.160;2023-06-14T12:32:19;2.30;;;2.10;;
24206;SDS011;12351;52.284;9.160;2023-06-14T12:35:06;4.23;;;2.10;;
24206;SDS011;12351;52.284;9.160;2023-06-14T12:37:54;2.20;;;2.00;;
24206;SDS011;12351;52.284;9.160;2023-06-14T12:40:42;2.87;;;2.07;;
24206;SDS011;12351;52.284;9.160;2023-06-14T12:43:30;5.40;;;2.10;;
24206;SDS011;12351;52.284;9.160;2023-06-14T12:46:19;4.57;;;2.10;;
24206;SDS011;12351;52.284;9.160;2023-06-14T12:49:07;2.43;;;2.20;;
24206;SDS011;12351;52.284;9.160;2023-06-14T12:51:56;7.50;;;2.30;;
24206;SDS011;12351;52.284;9.160;2023-06-14T12:54:43;3.90;;;2.30;;
24206;SDS011;12351;52.284;9.160;2023-06-14T12:57:31;2.53;;;2.10;;
24206;SDS011;12351;52.284;9.160;2023-06-14T13:00:20;2.33;;;1.97;;
24206;SDS011;12351;52.284;9.160;2023-06-14T13:03:11;2.77;;;2.00;;
24206;SDS011;12351;52.284;9.160;2023-06-14T13:05:59;2.80;;;2.43;;
24206;SDS011;12351;52.284;9.160;2023-06-14T13:08:46;2.47;;;1.93;;
24206;SDS011;12351;52.284;9.160;2023-06-14T13:11:36;2.53;;;2.20;;
24206;SDS011;12351;52.284;9.160;2023-06-14T13:14:23;3.83;;;2.30;;
24206;SDS011;12351;52.284;9.160;2023-06-14T13:17:12;2.57;;;2.10;;
24206;SDS011;12351;52.284;9.160;2023-06-14T13:19:59;2.90;;;2.50;;
24206;SDS011;12351;52.284;9.160;2023-06-14T13:22:47;3.43;;;2.20;;
24206;SDS011;12351;52.284;9.160;2023-06-14T13:25:36;3.73;;;2.17;;
24206;SDS011;12351;52.284;9.160;2023-06-14T13:28:25;2.77;;;2.20;;
24206;SDS011;12351;52.284;9.160;2023-06-14T13:31:13;2.47;;;2.20;;
24206;SDS011;12351;52.284;9.160;2023-06-14T13:34:00;5.27;;;2.40;;
24206;SDS011;12351;52.284;9.160;2023-06-14T13:36:48;2.90;;;2.30;;
24206;SDS011;12351;52.284;9.160;2023-06-14T13:39:36;4.47;;;2.17;;
24206;SDS011;12351;52.284;9.160;2023-06-14T13:42:24;2.67;;;2.10;;
24206;SDS011;12351;52.284;9.160;2023-06-14T13:45:12;3.20;;;2.20;;
24206;SDS011;12351;52.284;9.160;2023-06-14T13:47:59;5.63;;;2.47;;
24206;SDS011;12351;52.284;9.160;2023-06-14T13:50:47;2.33;;;2.07;;
24206;SDS011;12351;52.284;9.160;2023-06-14T13:53:34;4.13;;;2.27;;
24206;SDS011;12351;52.284;9.160;2023-06-14T13:56:22;4.90;;;2.20;;
24206;SDS011;12351;52.284;9.160;2023-06-14T13:59:10;2.53;;;2.30;;
24206;SDS011;12351;52.284;9.160;2023-06-14T14:01:58;3.10;;;2.37;;
24206;SDS011;12351;52.284;9.160;2023-06-14T14:04:46;4.73;;;2.33;;
24206;SDS011;12351;52.284;9.160;2023-06-14T14:07:35;3.13;;;2.20;;
24206;SDS011;12351;52.284;9.160;2023-06-14T14:10:24;4.93;;;2.30;;
24206;SDS011;12351;52.284;9.160;2023-06-14T14:13:12;4.03;;;2.20;;
24206;SDS011;12351;52.284;9.160;2023-06-14T14:16:00;4.13;;;2.73;;
24206;SDS011;12351;52.284;9.160;2023-06-14T14:18:48;3.97;;;2.70;;
24206;SDS011;12351;52.284;9.160;2023-06-14T14:21:35;3.77;;;2.73;;
24206;SDS011;12351;52.284;9.160;2023-06-14T14:24:24;3.30;;;2.37;;
24206;SDS011;12351;52.284;9.160;2023-06-14T14:27:11;3.20;;;2.50;;
24206;SDS011;12351;52.284;9.160;2023-06-14T14:29:59;4.23;;;2.80;;
24206;SDS011;12351;52.284;9.160;2023-06-14T14:32:47;6.60;;;2.77;;
24206;SDS011;12351;52.284;9.160;2023-06-14T14:35:35;4.33;;;2.50;;
24206;SDS011;12351;52.284;9.160;2023-06-14T14:38:21;3.83;;;2.50;;
24206;SDS011;12351;52.284;9.160;2023-06-14T14:41:09;3.13;;;2.40;;
24206;SDS011;12351;52.284;9.160;2023-06-14T14:43:56;2.70;;;2.40;;
24206;SDS011;12351;52.284;9.160;2023-06-14T14:46:46;3.93;;;2.80;;
24206;SDS011;12351;52.284;9.160;2023-06-14T14:49:33;3.07;;;2.77;;
24206;SDS011;12351;52.284;9.160;2023-06-14T14:52:21;2.70;;;2.50;;
24206;SDS011;12351;52.284;9.160;2023-06-14T14:55:09;4.37;;;2.70;;
24206;SDS011;12351;52.284;9.160;2023-06-14T14:57:57;5.30;;;2.77;;
24206;SDS011;12351;52.284;9.160;2023-06-14T15:00:44;4.17;;;3.10;;
24206;SDS011;12351;52.284;9.160;2023-06-14T15:03:32;6.23;;;2.80;;
24206;SDS011;12351;52.284;9.160;2023-06-14T15:06:20;5.37;;;3.20;;
24206;SDS011;12351;52.284;9.160;2023-06-14T15:09:07;3.77;;;3.07;;
24206;SDS011;12351;52.284;9.160;2023-06-14T15:11:56;5.37;;;2.90;;
24206;SDS011;12351;52.284;9.160;2023-06-14T15:14:42;5.07;;;2.73;;
24206;SDS011;12351;52.284;9.160;2023-06-14T15:17:31;3.93;;;2.77;;
24206;SDS011;12351;52.284;9.160;2023-06-14T15:20:18;5.27;;;2.37;;
24206;SDS011;12351;52.284;9.160;2023-06-14T15:23:08;6.63;;;2.47;;
24206;SDS011;12351;52.284;9.160;2023-06-14T15:25:57;5.80;;;2.80;;
24206;SDS011;12351;52.284;9.160;2023-06-14T15:28:46;5.30;;;3.20;;
24206;SDS011;12351;52.284;9.160;2023-06-14T15:31:33;3.37;;;2.83;;
24206;SDS011;12351;52.284;9.160;2023-06-14T15:34:20;5.37;;;3.00;;
24206;SDS011;12351;52.284;9.160;2023-06-14T15:37:08;5.13;;;2.80;;
24206;SDS011;12351;52.284;9.160;2023-06-14T15:39:57;4.20;;;3.07;;
24206;SDS011;12351;52.284;9.160;2023-06-14T15:42:45;3.03;;;2.70;;
24206;SDS011;12351;52.284;9.160;2023-06-14T15:45:33;7.30;;;3.30;;
24206;SDS011;12351;52.284;9.160;2023-06-14T15:48:22;3.57;;;2.60;;
24206;SDS011;12351;52.284;9.160;2023-06-14T15:51:09;4.20;;;2.57;;
24206;SDS011;12351;52.284;9.160;2023-06-14T15:53:58;4.03;;;2.60;;
24206;SDS011;12351;52.284;9.160;2023-06-14T15:56:47;3.43;;;2.70;;
24206;SDS011;12351;52.284;9.160;2023-06-14T15:59:34;3.00;;;2.67;;
24206;SDS011;12351;52.284;9.160;2023-06-14T16:02:22;3.13;;;2.60;;
24206;SDS011;12351;52.284;9.160;2023-06-14T16:05:11;3.60;;;3.13;;
24206;SDS011;12351;52.284;9.160;2023-06-14T16:08:00;3.93;;;2.80;;
24206;SDS011;12351;52.284;9.160;2023-06-14T16:10:47;6.03;;;2.80;;
24206;SDS011;12351;52.284;9.160;2023-06-14T16:13:35;3.27;;;2.87;;
24206;SDS011;12351;52.284;9.160;2023-06-14T16:16:22;4.60;;;3.43;;
24206;SDS011;12351;52.284;9.160;2023-06-14T16:19:10;6.70;;;2.97;;
24206;SDS011;12351;52.284;9.160;2023-06-14T16:21:59;4.73;;;3.43;;
24206;SDS011;12351;52.284;9.160;2023-06-14T16:24:47;6.13;;;3.10;;
24206;SDS011;12351;52.284;9.160;2023-06-14T16:27:35;5.43;;;3.03;;
24206;SDS011;12351;52.284;9.160;2023-06-14T16:30:22;4.70;;;3.03;;
24206;SDS011;12351;52.284;9.160;2023-06-14T16:33:09;3.07;;;2.77;;
24206;SDS011;12351;52.284;9.160;2023-06-14T16:35:56;6.17;;;3.00;;
24206;SDS011;12351;52.284;9.160;2023-06-14T16:38:45;5.90;;;3.00;;
24206;SDS011;12351;52.284;9.160;2023-06-14T16:41:33;4.13;;;3.10;;
24206;SDS011;12351;52.284;9.160;2023-06-14T16:44:21;3.70;;;2.83;;
24206;SDS011;12351;52.284;9.160;2023-06-14T16:47:09;7.10;;;2.97;;
24206;SDS011;12351;52.284;9.160;2023-06-14T16:49:56;5.20;;;3.37;;
24206;SDS011;12351;52.284;9.160;2023-06-14T16:52:43;7.33;;;3.00;;
24206;SDS011;12351;52.284;9.160;2023-06-14T16:55:33;4.10;;;2.90;;
24206;SDS011;12351;52.284;9.160;2023-06-14T16:58:22;4.90;;;3.13;;
24206;SDS011;12351;52.284;9.160;2023-06-14T17:01:09;3.87;;;2.80;;
24206;SDS011;12351;52.284;9.160;2023-06-14T17:03:57;10.13;;;2.90;;
24206;SDS011;12351;52.284;9.160;2023-06-14T17:06:44;2.83;;;2.57;;
24206;SDS011;12351;52.284;9.160;2023-06-14T17:09:32;6.00;;;2.80;;
24206;SDS011;12351;52.284;9.160;2023-06-14T17:12:20;4.50;;;2.67;;
24206;SDS011;12351;52.284;9.160;2023-06-14T17:15:08;6.00;;;3.10;;
24206;SDS011;12351;52.284;9.160;2023-06-14T17:17:56;5.60;;;3.17;;
24206;SDS011;12351;52.284;9.160;2023-06-14T17:20:43;5.00;;;2.80;;
24206;SDS011;12351;52.284;9.160;2023-06-14T17:23:32;3.50;;;2.77;;
24206;SDS011;12351;52.284;9.160;2023-06-14T17:26:20;3.40;;;2.70;;
24206;SDS011;12351;52.284;9.160;2023-06-14T17:29:07;3.27;;;2.60;;
24206;SDS011;12351;52.284;9.160;2023-06-14T17:31:55;5.13;;;3.00;;
24206;SDS011;12351;52.284;9.160;2023-06-14T17:34:42;6.90;;;2.70;;
24206;SDS011;12351;52.284;9.160;2023-06-14T17:37:29;10.13;;;2.77;;
24206;SDS011;12351;52.284;9.160;2023-06-14T17:40:18;5.40;;;2.97;;
24206;SDS011;12351;52.284;9.160;2023-06-14T17:43:06;3.20;;;2.77;;
24206;SDS011;12351;52.284;9.160;2023-06-14T17:45:53;4.33;;;2.57;;
24206;SDS011;12351;52.284;9.160;2023-06-14T17:48:41;5.63;;;3.03;;
24206;SDS011;12351;52.284;9.160;2023-06-14T17:51:29;3.60;;;2.70;;
24206;SDS011;12351;52.284;9.160;2023-06-14T17:54:18;3.13;;;2.60;;
24206;SDS011;12351;52.284;9.160;2023-06-14T17:57:05;5.47;;;2.70;;
24206;SDS011;12351;52.284;9.160;2023-06-14T17:59:53;5.80;;;2.60;;
24206;SDS011;12351;52.284;9.160;2023-06-14T18:02:41;4.70;;;3.20;;
24206;SDS011;12351;52.284;9.160;2023-06-14T18:05:30;5.60;;;3.10;;
24206;SDS011;12351;52.284;9.160;2023-06-14T18:08:17;3.40;;;2.97;;
24206;SDS011;12351;52.284;9.160;2023-06-14T18:11:05;2.93;;;2.57;;
24206;SDS011;12351;52.284;9.160;2023-06-14T18:13:52;5.57;;;3.00;;
24206;SDS011;12351;52.284;9.160;2023-06-14T18:16:40;8.03;;;3.03;;
24206;SDS011;12351;52.284;9.160;2023-06-14T18:19:28;7.97;;;2.77;;
24206;SDS011;12351;52.284;9.160;2023-06-14T18:22:16;4.67;;;2.97;;
24206;SDS011;12351;52.284;9.160;2023-06-14T18:25:02;2.97;;;2.67;;
24206;SDS011;12351;52.284;9.160;2023-06-14T18:27:51;3.57;;;2.90;;
24206;SDS011;12351;52.284;9.160;2023-06-14T18:30:39;5.80;;;2.70;;
24206;SDS011;12351;52.284;9.160;2023-06-14T18:33:27;5.30;;;2.80;;
24206;SDS011;12351;52.284;9.160;2023-06-14T18:36:14;3.63;;;2.70;;
24206;SDS011;12351;52.284;9.160;2023-06-14T18:39:03;6.97;;;3.00;;
24206;SDS011;12351;52.284;9.160;2023-06-14T18:41:51;7.97;;;2.70;;
24206;SDS011;12351;52.284;9.160;2023-06-14T18:44:38;4.00;;;2.70;;
24206;SDS011;12351;52.284;9.160;2023-06-14T18:47:26;6.57;;;2.90;;
24206;SDS011;12351;52.284;9.160;2023-06-14T18:50:13;3.90;;;2.83;;
24206;SDS011;12351;52.284;9.160;2023-06-14T18:53:01;3.40;;;3.10;;
24206;SDS011;12351;52.284;9.160;2023-06-14T18:55:51;5.30;;;2.77;;
24206;SDS011;12351;52.284;9.160;2023-06-14T18:58:43;3.83;;;3.07;;
24206;SDS011;12351;52.284;9.160;2023-06-14T19:01:29;9.57;;;3.20;;
24206;SDS011;12351;52.284;9.160;2023-06-14T19:04:16;4.77;;;2.80;;
24206;SDS011;12351;52.284;9.160;2023-06-14T19:07:04;4.80;;;2.93;;
24206;SDS011;12351;52.284;9.160;2023-06-14T19:09:53;3.30;;;3.00;;
24206;SDS011;12351;52.284;9.160;2023-06-14T19:12:41;3.90;;;2.50;;
24206;SDS011;12351;52.284;9.160;2023-06-14T19:15:30;3.33;;;2.77;;
24206;SDS011;12351;52.284;9.160;2023-06-14T19:18:17;5.20;;;2.83;;
24206;SDS011;12351;52.284;9.160;2023-06-14T19:21:04;4.13;;;2.90;;
24206;SDS011;12351;52.284;9.160;2023-06-14T19:23:52;4.93;;;2.60;;
24206;SDS011;12351;52.284;9.160;2023-06-14T19:26:41;5.97;;;3.03;;
24206;SDS011;12351;52.284;9.160;2023-06-14T19:29:28;3.07;;;2.77;;
24206;SDS011;12351;52.284;9.160;2023-06-14T19:32:17;5.33;;;2.90;;
24206;SDS011;12351;52.284;9.160;2023-06-14T19:35:06;5.00;;;3.20;;
24206;SDS011;12351;52.284;9.160;2023-06-14T19:37:54;4.17;;;3.07;;
24206;SDS011;12351;52.284;9.160;2023-06-14T19:40:42;6.67;;;3.13;;
24206;SDS011;12351;52.284;9.160;2023-06-14T19:43:29;4.80;;;3.00;;
24206;SDS011;12351;52.284;9.160;2023-06-14T19:46:17;5.00;;;3.47;;
24206;SDS011;12351;52.284;9.160;2023-06-14T19:49:05;6.60;;;2.80;;
24206;SDS011;12351;52.284;9.160;2023-06-14T19:51:54;5.23;;;3.10;;
24206;SDS011;12351;52.284;9.160;2023-06-14T19:54:41;4.13;;;3.13;;
24206;SDS011;12351;52.284;9.160;2023-06-14T19:57:31;4.90;;;2.93;;
24206;SDS011;12351;52.284;9.160;2023-06-14T20:00:19;3.47;;;3.07;;
24206;SDS011;12351;52.284;9.160;2023-06-14T20:03:05;4.83;;;3.60;;
24206;SDS011;12351;52.284;9.160;2023-06-14T20:05:56;5.17;;;2.63;;
24206;SDS011;12351;52.284;9.160;2023-06-14T20:08:43;6.60;;;3.13;;
24206;SDS011;12351;52.284;9.160;2023-06-14T20:11:32;3.20;;;2.90;;
24206;SDS011;12351;52.284;9.160;2023-06-14T20:14:19;4.53;;;3.03;;
24206;SDS011;12351;52.284;9.160;2023-06-14T20:17:06;4.33;;;3.13;;
24206;SDS011;12351;52.284;9.160;2023-06-14T20:19:55;6.33;;;2.83;;
24206;SDS011;12351;52.284;9.160;2023-06-14T20:22:43;4.43;;;3.20;;